sensor_id;sensor_type;location;lat;lon;timestamp;P1;durP1;ratioP1;P2;durP2;ratioP2
7881;SDS011;3986;41.884;23.466;2022-09-09T00:00:11;19.52;;;17.50;;
7881;SDS011;3986;41.884;23.466;2022-09-09T00:02:40;18.08;;;16.58;;
7881;SDS011;3986;41.884;23.466;2022-09-09T00:05:14;16.73;;;15.13;;
7881;SDS011;3986;41.884;23.466;2022-09-09T00:07:52;18.27;;;15.57;;
7881;SDS011;3986;41.884;23.466;2022-09-09T00:10:22;20.30;;;16.65;;
7881;SDS011;3986;41.884;23.466;2022-09-09T00:12:54;21.60;;;17.85;;
7881;SDS011;3986;41.884;23.466;2022-09-09T00:15:28;20.80;;;18.73;;
7881;SDS011;3986;41.884;23.466;2022-09-09T00:18:01;20.27;;;18.25;;
7881;SDS011;3986;41.884;23.466;2022-09-09T00:20:35;19.20;;;17.40;;
7881;SDS011;3986;41.884;23.466;2022-09-09T00:23:14;19.40;;;17.02;;
7881;SDS011;3986;41.884;23.466;2022-09-09T00:25:46;18.92;;;17.33;;
7881;SDS011;3986;41.884;23.466;2022-09-09T00:28:20;20.20;;;17.70;;
7881;SDS011;3986;41.884;23.466;2022-09-09T00:30:49;22.15;;;17.58;;
7881;SDS011;3986;41.884;23.466;2022-09-09T00:33:18;19.98;;;17.88;;
7881;SDS011;3986;41.884;23.466;2022-09-09T00:35:48;19.73;;;17.23;;
7881;SDS011;3986;41.884;23.466;2022-09-09T00:38:16;19.57;;;17.47;;
7881;SDS011;3986;41.884;23.466;2022-09-09T00:40:49;21.47;;;18.33;;
7881;SDS011;3986;41.884;23.466;2022-09-09T00:43:25;23.20;;;19.13;;
7881;SDS011;3986;41.884;23.466;2022-09-09T00:46:00;22.63;;;19.60;;
7881;SDS011;3986;41.884;23.466;2022-09-09T00:48:53;21.88;;;18.48;;
7881;SDS011;3986;41.884;23.466;2022-09-09T00:51:29;22.23;;;19.77;;
7881;SDS011;3986;41.884;23.466;2022-09-09T00:54:20;21.02;;;18.17;;
7881;SDS011;3986;41.884;23.466;2022-09-09T00:56:56;22.67;;;18.60;;
7881;SDS011;3986;41.884;23.466;2022-09-09T00:59:35;20.52;;;18.45;;
7881;SDS011;3986;41.884;23.466;2022-09-09T01:02:13;19.27;;;17.27;;
7881;SDS011;3986;41.884;23.466;2022-09-09T01:04:49;18.80;;;16.88;;
7881;SDS011;3986;41.884;23.466;2022-09-09T01:07:16;19.67;;;17.27;;
7881;SDS011;3986;41.884;23.466;2022-09-09T01:09:54;19.20;;;17.27;;
7881;SDS011;3986;41.884;23.466;2022-09-09T01:12:24;16.88;;;15.25;;
7881;SDS011;3986;41.884;23.466;2022-09-09T01:14:56;20.75;;;17.40;;
7881;SDS011;3986;41.884;23.466;2022-09-09T01:17:36;18.87;;;16.83;;
7881;SDS011;3986;41.884;23.466;2022-09-09T01:20:14;18.50;;;15.90;;
7881;SDS011;3986;41.884;23.466;2022-09-09T01:22:44;17.38;;;15.82;;
7881;SDS011;3986;41.884;23.466;2022-09-09T01:25:26;17.00;;;15.43;;
7881;SDS011;3986;41.884;23.466;2022-09-09T01:27:57;17.10;;;14.77;;
7881;SDS011;3986;41.884;23.466;2022-09-09T01:30:27;18.97;;;16.87;;
7881;SDS011;3986;41.884;23.466;2022-09-09T01:32:55;18.63;;;16.00;;
7881;SDS011;3986;41.884;23.466;2022-09-09T01:35:31;17.48;;;15.10;;
7881;SDS011;3986;41.884;23.466;2022-09-09T01:38:03;20.97;;;15.90;;
7881;SDS011;3986;41.884;23.466;2022-09-09T01:40:31;20.30;;;16.13;;
7881;SDS011;3986;41.884;23.466;2022-09-09T01:43:00;18.30;;;16.15;;
7881;SDS011;3986;41.884;23.466;2022-09-09T01:45:27;18.87;;;16.40;;
7881;SDS011;3986;41.884;23.466;2022-09-09T01:47:54;17.37;;;15.77;;
7881;SDS011;3986;41.884;23.466;2022-09-09T01:50:22;18.57;;;16.53;;
7881;SDS011;3986;41.884;23.466;2022-09-09T01:52:50;17.00;;;15.37;;
7881;SDS011;3986;41.884;23.466;2022-09-09T01:55:19;18.37;;;16.53;;
7881;SDS011;3986;41.884;23.466;2022-09-09T01:57:55;20.73;;;18.53;;
7881;SDS011;3986;41.884;23.466;2022-09-09T02:00:36;23.50;;;21.20;;
7881;SDS011;3986;41.884;23.466;2022-09-09T02:03:08;26.77;;;23.90;;
7881;SDS011;3986;41.884;23.466;2022-09-09T02:05:45;26.37;;;23.97;;
7881;SDS011;3986;41.884;23.466;2022-09-09T02:08:20;26.00;;;23.50;;
7881;SDS011;3986;41.884;23.466;2022-09-09T02:10:55;26.07;;;23.47;;
7881;SDS011;3986;41.884;23.466;2022-09-09T02:13:27;24.87;;;22.40;;
7881;SDS011;3986;41.884;23.466;2022-09-09T02:15:56;22.77;;;20.57;;
7881;SDS011;3986;41.884;23.466;2022-09-09T02:18:27;21.40;;;19.20;;
7881;SDS011;3986;41.884;23.466;2022-09-09T02:20:56;22.10;;;19.87;;
7881;SDS011;3986;41.884;23.466;2022-09-09T02:23:25;20.17;;;18.10;;
7881;SDS011;3986;41.884;23.466;2022-09-09T02:25:53;19.10;;;17.17;;
7881;SDS011;3986;41.884;23.466;2022-09-09T02:28:23;21.23;;;19.10;;
7881;SDS011;3986;41.884;23.466;2022-09-09T02:30:56;26.27;;;21.43;;
7881;SDS011;3986;41.884;23.466;2022-09-09T02:33:24;26.90;;;22.80;;
7881;SDS011;3986;41.884;23.466;2022-09-09T02:35:55;24.40;;;20.60;;
7881;SDS011;3986;41.884;23.466;2022-09-09T02:38:28;24.00;;;21.67;;
7881;SDS011;3986;41.884;23.466;2022-09-09T02:41:00;25.47;;;22.93;;
7881;SDS011;3986;41.884;23.466;2022-09-09T02:43:32;24.10;;;21.50;;
7881;SDS011;3986;41.884;23.466;2022-09-09T02:46:05;27.27;;;22.50;;
7881;SDS011;3986;41.884;23.466;2022-09-09T02:48:44;25.80;;;22.40;;
7881;SDS011;3986;41.884;23.466;2022-09-09T02:51:18;23.30;;;21.30;;
7881;SDS011;3986;41.884;23.466;2022-09-09T02:53:51;23.40;;;21.20;;
7881;SDS011;3986;41.884;23.466;2022-09-09T02:56:25;24.03;;;21.83;;
7881;SDS011;3986;41.884;23.466;2022-09-09T02:58:57;24.57;;;22.37;;
7881;SDS011;3986;41.884;23.466;2022-09-09T03:01:24;42.97;;;38.83;;
7881;SDS011;3986;41.884;23.466;2022-09-09T03:03:51;43.00;;;39.00;;
7881;SDS011;3986;41.884;23.466;2022-09-09T03:06:17;27.63;;;25.13;;
7881;SDS011;3986;41.884;23.466;2022-09-09T03:08:44;27.57;;;25.37;;
7881;SDS011;3986;41.884;23.466;2022-09-09T03:11:11;26.00;;;23.53;;
7881;SDS011;3986;41.884;23.466;2022-09-09T03:13:39;26.37;;;23.90;;
7881;SDS011;3986;41.884;23.466;2022-09-09T03:16:07;28.17;;;25.23;;
7881;SDS011;3986;41.884;23.466;2022-09-09T03:18:34;26.90;;;24.27;;
7881;SDS011;3986;41.884;23.466;2022-09-09T03:21:00;23.17;;;21.07;;
7881;SDS011;3986;41.884;23.466;2022-09-09T03:23:27;23.00;;;21.00;;
7881;SDS011;3986;41.884;23.466;2022-09-09T03:25:54;20.17;;;18.30;;
7881;SDS011;3986;41.884;23.466;2022-09-09T03:28:22;19.87;;;18.03;;
7881;SDS011;3986;41.884;23.466;2022-09-09T03:30:57;23.67;;;21.23;;
7881;SDS011;3986;41.884;23.466;2022-09-09T03:33:26;19.97;;;18.10;;
7881;SDS011;3986;41.884;23.466;2022-09-09T03:35:54;19.87;;;18.17;;
7881;SDS011;3986;41.884;23.466;2022-09-09T03:38:22;24.43;;;22.33;;
7881;SDS011;3986;41.884;23.466;2022-09-09T03:40:49;26.27;;;23.87;;
7881;SDS011;3986;41.884;23.466;2022-09-09T03:43:18;24.53;;;22.23;;
7881;SDS011;3986;41.884;23.466;2022-09-09T03:45:46;25.80;;;23.33;;
7881;SDS011;3986;41.884;23.466;2022-09-09T03:48:13;27.57;;;24.67;;
7881;SDS011;3986;41.884;23.466;2022-09-09T03:50:45;26.43;;;23.63;;
7881;SDS011;3986;41.884;23.466;2022-09-09T03:53:12;27.93;;;24.97;;
7881;SDS011;3986;41.884;23.466;2022-09-09T03:55:43;27.33;;;24.67;;
7881;SDS011;3986;41.884;23.466;2022-09-09T03:58:10;30.03;;;26.07;;
7881;SDS011;3986;41.884;23.466;2022-09-09T04:00:38;31.00;;;27.80;;
7881;SDS011;3986;41.884;23.466;2022-09-09T04:03:07;30.50;;;27.20;;
7881;SDS011;3986;41.884;23.466;2022-09-09T04:05:34;29.20;;;26.50;;
7881;SDS011;3986;41.884;23.466;2022-09-09T04:08:06;29.33;;;26.73;;
7881;SDS011;3986;41.884;23.466;2022-09-09T04:10:33;29.87;;;26.97;;
7881;SDS011;3986;41.884;23.466;2022-09-09T04:13:02;32.00;;;28.80;;
7881;SDS011;3986;41.884;23.466;2022-09-09T04:15:29;29.30;;;26.60;;
7881;SDS011;3986;41.884;23.466;2022-09-09T04:17:56;29.33;;;26.47;;
7881;SDS011;3986;41.884;23.466;2022-09-09T04:20:23;27.13;;;24.67;;
7881;SDS011;3986;41.884;23.466;2022-09-09T04:22:50;29.33;;;26.20;;
7881;SDS011;3986;41.884;23.466;2022-09-09T04:25:18;65.53;;;42.50;;
7881;SDS011;3986;41.884;23.466;2022-09-09T04:27:45;30.63;;;27.50;;
7881;SDS011;3986;41.884;23.466;2022-09-09T04:30:12;28.13;;;25.57;;
7881;SDS011;3986;41.884;23.466;2022-09-09T04:32:39;27.57;;;24.77;;
7881;SDS011;3986;41.884;23.466;2022-09-09T04:35:06;29.23;;;26.13;;
7881;SDS011;3986;41.884;23.466;2022-09-09T04:37:33;29.50;;;26.60;;
7881;SDS011;3986;41.884;23.466;2022-09-09T04:40:00;28.40;;;25.50;;
7881;SDS011;3986;41.884;23.466;2022-09-09T04:42:29;29.40;;;26.20;;
7881;SDS011;3986;41.884;23.466;2022-09-09T04:44:56;30.03;;;26.87;;
7881;SDS011;3986;41.884;23.466;2022-09-09T04:47:23;30.03;;;26.90;;
7881;SDS011;3986;41.884;23.466;2022-09-09T04:49:49;30.77;;;27.63;;
7881;SDS011;3986;41.884;23.466;2022-09-09T04:52:16;32.90;;;28.33;;
7881;SDS011;3986;41.884;23.466;2022-09-09T04:54:43;35.00;;;31.27;;
7881;SDS011;3986;41.884;23.466;2022-09-09T04:57:10;33.20;;;29.70;;
7881;SDS011;3986;41.884;23.466;2022-09-09T04:59:39;34.20;;;30.77;;
7881;SDS011;3986;41.884;23.466;2022-09-09T05:02:06;34.83;;;31.13;;
7881;SDS011;3986;41.884;23.466;2022-09-09T05:04:33;35.37;;;31.70;;
7881;SDS011;3986;41.884;23.466;2022-09-09T05:06:59;36.83;;;33.10;;
7881;SDS011;3986;41.884;23.466;2022-09-09T05:09:26;38.67;;;34.80;;
7881;SDS011;3986;41.884;23.466;2022-09-09T05:11:53;47.23;;;42.93;;
7881;SDS011;3986;41.884;23.466;2022-09-09T05:14:20;46.13;;;41.83;;
7881;SDS011;3986;41.884;23.466;2022-09-09T05:16:49;47.03;;;42.63;;
7881;SDS011;3986;41.884;23.466;2022-09-09T05:19:16;45.30;;;40.93;;
7881;SDS011;3986;41.884;23.466;2022-09-09T05:21:44;49.60;;;44.40;;
7881;SDS011;3986;41.884;23.466;2022-09-09T05:24:11;44.10;;;39.87;;
7881;SDS011;3986;41.884;23.466;2022-09-09T05:26:38;49.03;;;43.03;;
7881;SDS011;3986;41.884;23.466;2022-09-09T05:29:05;46.30;;;41.67;;
7881;SDS011;3986;41.884;23.466;2022-09-09T05:31:33;49.10;;;44.07;;
7881;SDS011;3986;41.884;23.466;2022-09-09T05:34:01;40.40;;;36.43;;
7881;SDS011;3986;41.884;23.466;2022-09-09T05:36:28;38.40;;;34.77;;
7881;SDS011;3986;41.884;23.466;2022-09-09T05:38:55;53.13;;;36.15;;
7881;SDS011;3986;41.884;23.466;2022-09-09T05:41:22;41.07;;;36.27;;
7881;SDS011;3986;41.884;23.466;2022-09-09T05:43:49;42.83;;;38.53;;
7881;SDS011;3986;41.884;23.466;2022-09-09T05:46:16;48.70;;;42.97;;
7881;SDS011;3986;41.884;23.466;2022-09-09T05:48:44;43.83;;;38.78;;
7881;SDS011;3986;41.884;23.466;2022-09-09T05:51:15;49.58;;;44.03;;
7881;SDS011;3986;41.884;23.466;2022-09-09T05:53:43;44.95;;;40.50;;
7881;SDS011;3986;41.884;23.466;2022-09-09T05:56:11;39.88;;;35.85;;
7881;SDS011;3986;41.884;23.466;2022-09-09T05:58:40;48.13;;;38.88;;
7881;SDS011;3986;41.884;23.466;2022-09-09T06:01:09;47.92;;;42.63;;
7881;SDS011;3986;41.884;23.466;2022-09-09T06:03:38;39.15;;;35.45;;
7881;SDS011;3986;41.884;23.466;2022-09-09T06:06:06;45.15;;;39.70;;
7881;SDS011;3986;41.884;23.466;2022-09-09T06:08:36;40.33;;;36.55;;
7881;SDS011;3986;41.884;23.466;2022-09-09T06:11:05;41.08;;;37.08;;
7881;SDS011;3986;41.884;23.466;2022-09-09T06:13:33;51.00;;;40.75;;
7881;SDS011;3986;41.884;23.466;2022-09-09T06:16:02;44.57;;;40.23;;
7881;SDS011;3986;41.884;23.466;2022-09-09T06:18:29;44.03;;;39.10;;
7881;SDS011;3986;41.884;23.466;2022-09-09T06:20:57;46.25;;;41.28;;
7881;SDS011;3986;41.884;23.466;2022-09-09T06:23:25;44.08;;;39.65;;
7881;SDS011;3986;41.884;23.466;2022-09-09T06:26:01;79.50;;;49.28;;
7881;SDS011;3986;41.884;23.466;2022-09-09T06:28:30;48.83;;;44.47;;
7881;SDS011;3986;41.884;23.466;2022-09-09T06:30:58;47.42;;;42.50;;
7881;SDS011;3986;41.884;23.466;2022-09-09T06:33:25;52.78;;;47.40;;
7881;SDS011;3986;41.884;23.466;2022-09-09T06:35:53;48.08;;;43.22;;
7881;SDS011;3986;41.884;23.466;2022-09-09T06:38:20;46.80;;;42.05;;
7881;SDS011;3986;41.884;23.466;2022-09-09T06:40:50;53.00;;;45.38;;
7881;SDS011;3986;41.884;23.466;2022-09-09T06:43:20;52.70;;;47.28;;
7881;SDS011;3986;41.884;23.466;2022-09-09T06:45:54;53.38;;;47.78;;
7881;SDS011;3986;41.884;23.466;2022-09-09T06:48:21;53.45;;;47.65;;
7881;SDS011;3986;41.884;23.466;2022-09-09T06:50:48;54.00;;;48.38;;
7881;SDS011;3986;41.884;23.466;2022-09-09T06:53:16;61.13;;;48.42;;
7881;SDS011;3986;41.884;23.466;2022-09-09T06:55:44;49.40;;;44.42;;
7881;SDS011;3986;41.884;23.466;2022-09-09T06:58:11;58.17;;;46.13;;
7881;SDS011;3986;41.884;23.466;2022-09-09T07:00:39;51.03;;;45.92;;
7881;SDS011;3986;41.884;23.466;2022-09-09T07:03:07;50.35;;;45.28;;
7881;SDS011;3986;41.884;23.466;2022-09-09T07:05:33;60.17;;;43.85;;
7881;SDS011;3986;41.884;23.466;2022-09-09T07:08:00;49.13;;;41.33;;
7881;SDS011;3986;41.884;23.466;2022-09-09T07:10:28;45.97;;;41.08;;
7881;SDS011;3986;41.884;23.466;2022-09-09T07:12:55;52.83;;;43.35;;
7881;SDS011;3986;41.884;23.466;2022-09-09T07:15:22;52.75;;;42.92;;
7881;SDS011;3986;41.884;23.466;2022-09-09T07:17:51;66.63;;;43.65;;
7881;SDS011;3986;41.884;23.466;2022-09-09T07:20:19;45.83;;;39.88;;
7881;SDS011;3986;41.884;23.466;2022-09-09T07:22:46;42.83;;;38.47;;
7881;SDS011;3986;41.884;23.466;2022-09-09T07:25:13;40.78;;;36.50;;
7881;SDS011;3986;41.884;23.466;2022-09-09T07:27:43;45.97;;;35.45;;
7881;SDS011;3986;41.884;23.466;2022-09-09T07:30:10;58.22;;;36.67;;
7881;SDS011;3986;41.884;23.466;2022-09-09T07:32:37;38.15;;;33.97;;
7881;SDS011;3986;41.884;23.466;2022-09-09T07:35:06;47.88;;;33.65;;
7881;SDS011;3986;41.884;23.466;2022-09-09T07:37:35;38.58;;;34.45;;
7881;SDS011;3986;41.884;23.466;2022-09-09T07:40:03;38.15;;;34.30;;
7881;SDS011;3986;41.884;23.466;2022-09-09T07:42:30;50.55;;;35.00;;
7881;SDS011;3986;41.884;23.466;2022-09-09T07:44:57;36.67;;;30.77;;
7881;SDS011;3986;41.884;23.466;2022-09-09T07:47:24;58.72;;;36.47;;
7881;SDS011;3986;41.884;23.466;2022-09-09T07:49:51;35.20;;;31.20;;
7881;SDS011;3986;41.884;23.466;2022-09-09T07:52:19;29.35;;;26.27;;
7881;SDS011;3986;41.884;23.466;2022-09-09T07:54:46;41.78;;;29.77;;
7881;SDS011;3986;41.884;23.466;2022-09-09T07:57:13;29.77;;;26.48;;
7881;SDS011;3986;41.884;23.466;2022-09-09T07:59:40;30.83;;;27.65;;
7881;SDS011;3986;41.884;23.466;2022-09-09T08:02:08;27.52;;;24.75;;
7881;SDS011;3986;41.884;23.466;2022-09-09T08:04:36;24.80;;;21.45;;
7881;SDS011;3986;41.884;23.466;2022-09-09T08:07:03;26.50;;;23.35;;
7881;SDS011;3986;41.884;23.466;2022-09-09T08:09:31;34.42;;;30.27;;
7881;SDS011;3986;41.884;23.466;2022-09-09T08:11:59;31.85;;;27.50;;
7881;SDS011;3986;41.884;23.466;2022-09-09T08:14:26;26.52;;;19.85;;
7881;SDS011;3986;41.884;23.466;2022-09-09T08:16:54;23.50;;;17.67;;
7881;SDS011;3986;41.884;23.466;2022-09-09T08:19:22;19.98;;;16.58;;
7881;SDS011;3986;41.884;23.466;2022-09-09T08:21:49;35.45;;;21.13;;
7881;SDS011;3986;41.884;23.466;2022-09-09T08:24:16;22.48;;;18.23;;
7881;SDS011;3986;41.884;23.466;2022-09-09T08:26:46;31.55;;;18.77;;
7881;SDS011;3986;41.884;23.466;2022-09-09T08:29:14;24.58;;;16.40;;
7881;SDS011;3986;41.884;23.466;2022-09-09T08:31:42;39.53;;;17.42;;
7881;SDS011;3986;41.884;23.466;2022-09-09T08:34:10;22.38;;;15.75;;
7881;SDS011;3986;41.884;23.466;2022-09-09T08:36:38;18.08;;;15.75;;
7881;SDS011;3986;41.884;23.466;2022-09-09T08:39:07;15.93;;;13.80;;
7881;SDS011;3986;41.884;23.466;2022-09-09T08:41:50;29.77;;;18.73;;
7881;SDS011;3986;41.884;23.466;2022-09-09T08:44:40;22.63;;;15.02;;
7881;SDS011;3986;41.884;23.466;2022-09-09T08:47:20;21.52;;;16.85;;
7881;SDS011;3986;41.884;23.466;2022-09-09T08:50:01;24.08;;;14.98;;
7881;SDS011;3986;41.884;23.466;2022-09-09T08:52:36;27.42;;;18.33;;
7881;SDS011;3986;41.884;23.466;2022-09-09T08:55:12;19.40;;;14.20;;
7881;SDS011;3986;41.884;23.466;2022-09-09T08:57:49;19.92;;;14.45;;
7881;SDS011;3986;41.884;23.466;2022-09-09T09:00:18;24.02;;;13.85;;
7881;SDS011;3986;41.884;23.466;2022-09-09T09:02:46;23.27;;;15.68;;
7881;SDS011;3986;41.884;23.466;2022-09-09T09:05:23;25.05;;;13.68;;
7881;SDS011;3986;41.884;23.466;2022-09-09T09:07:59;20.63;;;14.63;;
7881;SDS011;3986;41.884;23.466;2022-09-09T09:10:36;21.00;;;11.48;;
7881;SDS011;3986;41.884;23.466;2022-09-09T09:13:14;23.70;;;12.68;;
7881;SDS011;3986;41.884;23.466;2022-09-09T09:15:43;33.80;;;13.95;;
7881;SDS011;3986;41.884;23.466;2022-09-09T09:18:13;35.55;;;14.65;;
7881;SDS011;3986;41.884;23.466;2022-09-09T09:20:44;41.25;;;14.30;;
7881;SDS011;3986;41.884;23.466;2022-09-09T09:23:26;36.28;;;15.20;;
7881;SDS011;3986;41.884;23.466;2022-09-09T09:26:06;29.23;;;12.70;;
7881;SDS011;3986;41.884;23.466;2022-09-09T09:28:42;25.48;;;12.73;;
7881;SDS011;3986;41.884;23.466;2022-09-09T09:31:11;23.15;;;12.73;;
7881;SDS011;3986;41.884;23.466;2022-09-09T09:33:42;36.88;;;14.05;;
7881;SDS011;3986;41.884;23.466;2022-09-09T09:36:13;24.95;;;12.52;;
7881;SDS011;3986;41.884;23.466;2022-09-09T09:38:51;29.58;;;12.15;;
7881;SDS011;3986;41.884;23.466;2022-09-09T09:41:30;36.03;;;14.95;;
7881;SDS011;3986;41.884;23.466;2022-09-09T09:44:00;23.48;;;11.82;;
7881;SDS011;3986;41.884;23.466;2022-09-09T09:46:27;31.45;;;12.80;;
7881;SDS011;3986;41.884;23.466;2022-09-09T09:48:58;38.33;;;12.55;;
7881;SDS011;3986;41.884;23.466;2022-09-09T09:51:26;31.85;;;13.50;;
7881;SDS011;3986;41.884;23.466;2022-09-09T09:53:53;34.97;;;13.52;;
7881;SDS011;3986;41.884;23.466;2022-09-09T09:56:30;51.67;;;19.50;;
7881;SDS011;3986;41.884;23.466;2022-09-09T09:58:58;48.25;;;15.00;;
7881;SDS011;3986;41.884;23.466;2022-09-09T10:01:26;33.28;;;15.43;;
7881;SDS011;3986;41.884;23.466;2022-09-09T10:03:57;25.33;;;13.77;;
7881;SDS011;3986;41.884;23.466;2022-09-09T10:06:30;41.55;;;15.30;;
7881;SDS011;3986;41.884;23.466;2022-09-09T10:08:58;45.92;;;16.42;;
7881;SDS011;3986;41.884;23.466;2022-09-09T10:11:30;37.75;;;14.13;;
7881;SDS011;3986;41.884;23.466;2022-09-09T10:14:11;46.92;;;16.75;;
7881;SDS011;3986;41.884;23.466;2022-09-09T10:16:51;49.05;;;21.02;;
7881;SDS011;3986;41.884;23.466;2022-09-09T10:19:29;104.20;;;24.73;;
7881;SDS011;3986;41.884;23.466;2022-09-09T10:22:02;47.35;;;16.35;;
7881;SDS011;3986;41.884;23.466;2022-09-09T10:24:58;46.85;;;17.77;;
7881;SDS011;3986;41.884;23.466;2022-09-09T10:27:37;48.63;;;16.63;;
7881;SDS011;3986;41.884;23.466;2022-09-09T10:30:14;46.28;;;15.77;;
7881;SDS011;3986;41.884;23.466;2022-09-09T10:32:49;33.03;;;15.38;;
7881;SDS011;3986;41.884;23.466;2022-09-09T10:35:25;109.32;;;23.27;;
7881;SDS011;3986;41.884;23.466;2022-09-09T10:40:42;34.03;;;14.80;;
7881;SDS011;3986;41.884;23.466;2022-09-09T10:43:20;26.92;;;13.80;;
7881;SDS011;3986;41.884;23.466;2022-09-09T10:45:59;50.72;;;16.85;;
7881;SDS011;3986;41.884;23.466;2022-09-09T10:48:36;40.25;;;15.10;;
7881;SDS011;3986;41.884;23.466;2022-09-09T10:51:19;50.67;;;17.00;;
7881;SDS011;3986;41.884;23.466;2022-09-09T10:54:00;31.10;;;14.90;;
7881;SDS011;3986;41.884;23.466;2022-09-09T10:56:48;40.42;;;14.95;;
7881;SDS011;3986;41.884;23.466;2022-09-09T10:59:23;44.05;;;14.15;;
7881;SDS011;3986;41.884;23.466;2022-09-09T11:01:53;33.58;;;15.15;;
7881;SDS011;3986;41.884;23.466;2022-09-09T11:04:27;46.97;;;14.88;;
7881;SDS011;3986;41.884;23.466;2022-09-09T11:06:57;31.75;;;16.27;;
7881;SDS011;3986;41.884;23.466;2022-09-09T11:09:31;40.78;;;14.77;;
7881;SDS011;3986;41.884;23.466;2022-09-09T11:12:02;49.90;;;15.20;;
7881;SDS011;3986;41.884;23.466;2022-09-09T11:14:31;56.63;;;15.73;;
7881;SDS011;3986;41.884;23.466;2022-09-09T11:17:05;38.63;;;13.23;;
7881;SDS011;3986;41.884;23.466;2022-09-09T11:19:37;41.30;;;13.40;;
7881;SDS011;3986;41.884;23.466;2022-09-09T11:22:07;58.28;;;14.77;;
7881;SDS011;3986;41.884;23.466;2022-09-09T11:24:41;20.55;;;10.77;;
7881;SDS011;3986;41.884;23.466;2022-09-09T11:27:13;37.85;;;13.05;;
7881;SDS011;3986;41.884;23.466;2022-09-09T11:29:53;48.03;;;14.65;;
7881;SDS011;3986;41.884;23.466;2022-09-09T11:35:37;27.35;;;10.55;;
7881;SDS011;3986;41.884;23.466;2022-09-09T11:38:14;63.55;;;46.53;;
7881;SDS011;3986;41.884;23.466;2022-09-09T11:40:45;41.78;;;12.98;;
7881;SDS011;3986;41.884;23.466;2022-09-09T11:43:13;27.92;;;11.75;;
7881;SDS011;3986;41.884;23.466;2022-09-09T11:45:49;24.63;;;10.90;;
7881;SDS011;3986;41.884;23.466;2022-09-09T11:48:22;36.50;;;12.40;;
7881;SDS011;3986;41.884;23.466;2022-09-09T11:51:01;29.13;;;12.25;;
7881;SDS011;3986;41.884;23.466;2022-09-09T11:53:32;68.20;;;17.48;;
7881;SDS011;3986;41.884;23.466;2022-09-09T11:56:09;29.23;;;11.93;;
7881;SDS011;3986;41.884;23.466;2022-09-09T11:58:41;26.83;;;10.70;;
7881;SDS011;3986;41.884;23.466;2022-09-09T12:01:26;24.38;;;10.75;;
7881;SDS011;3986;41.884;23.466;2022-09-09T12:04:05;38.72;;;14.00;;
7881;SDS011;3986;41.884;23.466;2022-09-09T12:06:50;25.70;;;11.00;;
7881;SDS011;3986;41.884;23.466;2022-09-09T12:09:24;72.45;;;16.75;;
7881;SDS011;3986;41.884;23.466;2022-09-09T12:12:06;28.55;;;11.77;;
7881;SDS011;3986;41.884;23.466;2022-09-09T12:14:54;25.58;;;10.30;;
7881;SDS011;3986;41.884;23.466;2022-09-09T12:17:46;30.83;;;11.27;;
7881;SDS011;3986;41.884;23.466;2022-09-09T12:20:15;23.38;;;10.50;;
7881;SDS011;3986;41.884;23.466;2022-09-09T12:23:04;26.85;;;15.80;;
7881;SDS011;3986;41.884;23.466;2022-09-09T12:25:54;34.08;;;12.68;;
7881;SDS011;3986;41.884;23.466;2022-09-09T12:28:27;48.60;;;15.90;;
7881;SDS011;3986;41.884;23.466;2022-09-09T12:31:08;58.22;;;14.07;;
7881;SDS011;3986;41.884;23.466;2022-09-09T12:33:42;42.35;;;15.52;;
7881;SDS011;3986;41.884;23.466;2022-09-09T12:36:12;32.40;;;14.30;;
7881;SDS011;3986;41.884;23.466;2022-09-09T12:38:43;28.92;;;10.82;;
7881;SDS011;3986;41.884;23.466;2022-09-09T12:41:17;68.50;;;14.95;;
7881;SDS011;3986;41.884;23.466;2022-09-09T12:43:46;30.20;;;9.75;;
7881;SDS011;3986;41.884;23.466;2022-09-09T12:46:15;24.15;;;8.85;;
7881;SDS011;3986;41.884;23.466;2022-09-09T12:48:51;36.17;;;10.85;;
7881;SDS011;3986;41.884;23.466;2022-09-09T12:51:21;40.40;;;11.82;;
7881;SDS011;3986;41.884;23.466;2022-09-09T12:53:53;45.30;;;11.40;;
7881;SDS011;3986;41.884;23.466;2022-09-09T12:56:21;33.13;;;10.30;;
7881;SDS011;3986;41.884;23.466;2022-09-09T12:58:52;36.35;;;12.73;;
7881;SDS011;3986;41.884;23.466;2022-09-09T13:01:22;39.20;;;12.43;;
7881;SDS011;3986;41.884;23.466;2022-09-09T13:03:50;43.40;;;18.05;;
7881;SDS011;3986;41.884;23.466;2022-09-09T13:06:19;39.55;;;13.07;;
7881;SDS011;3986;41.884;23.466;2022-09-09T13:08:49;31.08;;;11.32;;
7881;SDS011;3986;41.884;23.466;2022-09-09T13:11:18;37.47;;;12.70;;
7881;SDS011;3986;41.884;23.466;2022-09-09T13:13:50;30.10;;;10.75;;
7881;SDS011;3986;41.884;23.466;2022-09-09T13:16:19;37.17;;;11.18;;
7881;SDS011;3986;41.884;23.466;2022-09-09T13:18:48;25.13;;;9.02;;
7881;SDS011;3986;41.884;23.466;2022-09-09T13:21:16;25.77;;;9.45;;
7881;SDS011;3986;41.884;23.466;2022-09-09T13:23:47;21.95;;;10.40;;
7881;SDS011;3986;41.884;23.466;2022-09-09T13:26:23;26.25;;;11.30;;
7881;SDS011;3986;41.884;23.466;2022-09-09T13:28:52;24.27;;;11.35;;
7881;SDS011;3986;41.884;23.466;2022-09-09T13:31:20;29.60;;;18.38;;
7881;SDS011;3986;41.884;23.466;2022-09-09T13:33:49;26.45;;;10.02;;
7881;SDS011;3986;41.884;23.466;2022-09-09T13:36:26;27.77;;;10.68;;
7881;SDS011;3986;41.884;23.466;2022-09-09T13:38:55;27.17;;;12.45;;
7881;SDS011;3986;41.884;23.466;2022-09-09T13:41:28;26.85;;;10.18;;
7881;SDS011;3986;41.884;23.466;2022-09-09T13:43:57;20.67;;;9.38;;
7881;SDS011;3986;41.884;23.466;2022-09-09T13:46:27;26.85;;;9.85;;
7881;SDS011;3986;41.884;23.466;2022-09-09T13:48:58;22.80;;;9.13;;
7881;SDS011;3986;41.884;23.466;2022-09-09T13:51:32;30.30;;;18.08;;
7881;SDS011;3986;41.884;23.466;2022-09-09T13:54:02;32.05;;;10.57;;
7881;SDS011;3986;41.884;23.466;2022-09-09T13:56:32;32.40;;;11.50;;
7881;SDS011;3986;41.884;23.466;2022-09-09T13:58:59;31.25;;;10.50;;
7881;SDS011;3986;41.884;23.466;2022-09-09T14:01:26;27.08;;;9.88;;
7881;SDS011;3986;41.884;23.466;2022-09-09T14:03:53;45.50;;;12.50;;
7881;SDS011;3986;41.884;23.466;2022-09-09T14:06:20;26.40;;;9.75;;
7881;SDS011;3986;41.884;23.466;2022-09-09T14:08:48;32.70;;;25.13;;
7881;SDS011;3986;41.884;23.466;2022-09-09T14:11:16;23.55;;;11.52;;
7881;SDS011;3986;41.884;23.466;2022-09-09T14:13:45;15.90;;;13.25;;
7881;SDS011;3986;41.884;23.466;2022-09-09T14:16:12;36.10;;;29.05;;
7881;SDS011;3986;41.884;23.466;2022-09-09T14:18:39;33.50;;;17.50;;
7881;SDS011;3986;41.884;23.466;2022-09-09T14:21:06;58.22;;;15.23;;
7881;SDS011;3986;41.884;23.466;2022-09-09T14:23:34;29.77;;;11.02;;
7881;SDS011;3986;41.884;23.466;2022-09-09T14:26:00;34.20;;;10.93;;
7881;SDS011;3986;41.884;23.466;2022-09-09T14:28:27;26.33;;;10.18;;
7881;SDS011;3986;41.884;23.466;2022-09-09T14:30:58;20.48;;;9.98;;
7881;SDS011;3986;41.884;23.466;2022-09-09T14:33:26;18.17;;;14.05;;
7881;SDS011;3986;41.884;23.466;2022-09-09T14:35:55;18.10;;;10.23;;
7881;SDS011;3986;41.884;23.466;2022-09-09T14:38:23;19.83;;;9.73;;
7881;SDS011;3986;41.884;23.466;2022-09-09T14:40:50;26.17;;;15.10;;
7881;SDS011;3986;41.884;23.466;2022-09-09T14:43:17;17.33;;;8.80;;
7881;SDS011;3986;41.884;23.466;2022-09-09T14:45:45;23.63;;;10.27;;
7881;SDS011;3986;41.884;23.466;2022-09-09T14:48:14;25.13;;;10.80;;
7881;SDS011;3986;41.884;23.466;2022-09-09T14:50:41;25.23;;;11.20;;
7881;SDS011;3986;41.884;23.466;2022-09-09T14:53:08;23.60;;;10.52;;
7881;SDS011;3986;41.884;23.466;2022-09-09T14:55:35;18.73;;;11.52;;
7881;SDS011;3986;41.884;23.466;2022-09-09T14:58:04;48.85;;;14.63;;
7881;SDS011;3986;41.884;23.466;2022-09-09T15:00:31;17.63;;;10.88;;
7881;SDS011;3986;41.884;23.466;2022-09-09T15:02:58;20.38;;;10.85;;